Accueil
METAR-TAF:

METAR-TAF

Aéroports :

Sanford Seacoast Regional Airport

Sanford, Maine, États-Unis

latitude: 43-24N, longitude: 070-43W, altitude: 74 m

Observation

Le bulletin a été fait il y a 55 minutes, à 19:56 UTC
Vent 4 kt de ouest
Température 19°C
Humidité 94%
Pression 1005 hPa
Visibilité: 16.1 km
Ciel couvert à une hauteur de 8000 ft
pluie faible

METAR: KSFM 221956Z AUTO 28004KT 10SM -RA OVC080 19/18 A2967 RMK AO2 SLP047 P0001 T01890178

Heure: 16:51 (20:51 UTC)


TAF: absent

Observations et prévisions météorologiques de plus de 4000 aéroports (messages METAR et TAF).

Les stations disponibles sont représentées par des disques jaunes et rouges sur la carte.

Passer la souris dessus pour voir le nom de la station.

Cliquer dessus pour voir les observations et prévisions météorologiques.

Pour changer de carte: cliquez sur les boutons verts avec une croix noire pour zoomer, sur le bouton vert avec un tiret pour effectuer un zoom arrière, ou sur les flèches vertes pour les cartes adjacentes.


METAR-TAF: